sensor_id;sensor_type;location;lat;lon;timestamp;temperature;humidity
45115;DHT22;30877;43.706;10.780;2023-02-28T00:01:37;7.80;96.70
45115;DHT22;30877;43.706;10.780;2023-02-28T00:04:05;7.80;96.70
45115;DHT22;30877;43.706;10.780;2023-02-28T00:06:33;8.00;96.70
45115;DHT22;30877;43.706;10.780;2023-02-28T00:09:01;8.10;96.70
45115;DHT22;30877;43.706;10.780;2023-02-28T00:11:29;8.20;96.70
45115;DHT22;30877;43.706;10.780;2023-02-28T00:13:59;8.20;96.70
45115;DHT22;30877;43.706;10.780;2023-02-28T00:16:27;8.20;96.70
45115;DHT22;30877;43.706;10.780;2023-02-28T00:18:55;8.20;96.70
45115;DHT22;30877;43.706;10.780;2023-02-28T00:21:23;8.20;96.70
45115;DHT22;30877;43.706;10.780;2023-02-28T00:23:52;8.10;96.70
45115;DHT22;30877;43.706;10.780;2023-02-28T00:26:20;8.10;96.70
45115;DHT22;30877;43.706;10.780;2023-02-28T00:28:49;8.20;96.70
45115;DHT22;30877;43.706;10.780;2023-02-28T00:31:24;8.20;96.70
45115;DHT22;30877;43.706;10.780;2023-02-28T00:33:53;8.20;96.70
45115;DHT22;30877;43.706;10.780;2023-02-28T00:36:21;8.10;96.70
45115;DHT22;30877;43.706;10.780;2023-02-28T00:38:50;7.90;96.70
45115;DHT22;30877;43.706;10.780;2023-02-28T00:41:18;7.90;96.70
45115;DHT22;30877;43.706;10.780;2023-02-28T00:43:47;7.90;96.70
45115;DHT22;30877;43.706;10.780;2023-02-28T00:46:15;7.80;96.70
45115;DHT22;30877;43.706;10.780;2023-02-28T00:48:44;7.70;96.70
45115;DHT22;30877;43.706;10.780;2023-02-28T00:51:12;7.90;96.70
45115;DHT22;30877;43.706;10.780;2023-02-28T00:53:40;8.10;96.70
45115;DHT22;30877;43.706;10.780;2023-02-28T00:56:08;8.10;96.70
45115;DHT22;30877;43.706;10.780;2023-02-28T00:58:36;8.10;96.70
45115;DHT22;30877;43.706;10.780;2023-02-28T01:01:04;8.10;96.70
45115;DHT22;30877;43.706;10.780;2023-02-28T01:03:32;7.90;96.70
45115;DHT22;30877;43.706;10.780;2023-02-28T01:06:01;7.90;96.70
45115;DHT22;30877;43.706;10.780;2023-02-28T01:08:29;8.00;96.70
45115;DHT22;30877;43.706;10.780;2023-02-28T01:10:57;8.10;96.70
45115;DHT22;30877;43.706;10.780;2023-02-28T01:13:34;8.10;96.70
45115;DHT22;30877;43.706;10.780;2023-02-28T01:16:02;8.10;96.70
45115;DHT22;30877;43.706;10.780;2023-02-28T01:18:30;8.10;96.70
45115;DHT22;30877;43.706;10.780;2023-02-28T01:21:04;7.90;96.70
45115;DHT22;30877;43.706;10.780;2023-02-28T01:23:32;7.90;96.70
45115;DHT22;30877;43.706;10.780;2023-02-28T01:26:05;8.10;96.70
45115;DHT22;30877;43.706;10.780;2023-02-28T01:28:33;7.90;96.70
45115;DHT22;30877;43.706;10.780;2023-02-28T01:31:01;7.70;96.70
45115;DHT22;30877;43.706;10.780;2023-02-28T01:33:29;7.70;96.70
45115;DHT22;30877;43.706;10.780;2023-02-28T01:35:59;7.80;96.70
45115;DHT22;30877;43.706;10.780;2023-02-28T01:38:30;7.90;96.70
45115;DHT22;30877;43.706;10.780;2023-02-28T01:40:58;8.10;96.70
45115;DHT22;30877;43.706;10.780;2023-02-28T01:43:28;8.20;96.70
45115;DHT22;30877;43.706;10.780;2023-02-28T01:45:57;8.10;96.70
45115;DHT22;30877;43.706;10.780;2023-02-28T01:48:29;8.10;96.70
45115;DHT22;30877;43.706;10.780;2023-02-28T01:51:03;8.20;96.70
45115;DHT22;30877;43.706;10.780;2023-02-28T01:53:37;8.10;96.70
45115;DHT22;30877;43.706;10.780;2023-02-28T01:56:08;8.20;96.70
45115;DHT22;30877;43.706;10.780;2023-02-28T01:58:38;8.20;96.70
45115;DHT22;30877;43.706;10.780;2023-02-28T02:01:06;8.10;96.70
45115;DHT22;30877;43.706;10.780;2023-02-28T02:03:35;8.00;96.70
45115;DHT22;30877;43.706;10.780;2023-02-28T02:06:04;8.10;96.70
45115;DHT22;30877;43.706;10.780;2023-02-28T02:08:33;8.10;96.70
45115;DHT22;30877;43.706;10.780;2023-02-28T02:11:02;8.20;96.70
45115;DHT22;30877;43.706;10.780;2023-02-28T02:13:38;8.10;96.70
45115;DHT22;30877;43.706;10.780;2023-02-28T02:16:21;8.00;96.70
45115;DHT22;30877;43.706;10.780;2023-02-28T02:18:53;8.00;96.70
45115;DHT22;30877;43.706;10.780;2023-02-28T02:21:47;8.10;96.70
45115;DHT22;30877;43.706;10.780;2023-02-28T02:25:09;8.10;96.70
45115;DHT22;30877;43.706;10.780;2023-02-28T02:30:54;8.20;96.70
45115;DHT22;30877;43.706;10.780;2023-02-28T02:36:32;8.30;96.70
45115;DHT22;30877;43.706;10.780;2023-02-28T02:39:05;8.30;96.70
45115;DHT22;30877;43.706;10.780;2023-02-28T02:41:38;8.30;96.70
45115;DHT22;30877;43.706;10.780;2023-02-28T02:44:13;8.40;96.70
45115;DHT22;30877;43.706;10.780;2023-02-28T02:46:44;8.40;96.70
45115;DHT22;30877;43.706;10.780;2023-02-28T02:49:17;8.30;96.70
45115;DHT22;30877;43.706;10.780;2023-02-28T02:51:50;8.40;96.70
45115;DHT22;30877;43.706;10.780;2023-02-28T02:54:22;8.40;96.70
45115;DHT22;30877;43.706;10.780;2023-02-28T02:56:58;8.40;96.70
45115;DHT22;30877;43.706;10.780;2023-02-28T02:59:28;8.40;96.70
45115;DHT22;30877;43.706;10.780;2023-02-28T03:02:04;8.40;96.70
45115;DHT22;30877;43.706;10.780;2023-02-28T03:04:37;8.50;96.70
45115;DHT22;30877;43.706;10.780;2023-02-28T03:07:09;8.40;96.70
45115;DHT22;30877;43.706;10.780;2023-02-28T03:09:37;8.40;96.70
45115;DHT22;30877;43.706;10.780;2023-02-28T03:12:11;8.50;96.70
45115;DHT22;30877;43.706;10.780;2023-02-28T03:14:47;8.50;96.70
45115;DHT22;30877;43.706;10.780;2023-02-28T03:20:17;8.40;96.70
45115;DHT22;30877;43.706;10.780;2023-02-28T03:22:57;8.40;96.70
45115;DHT22;30877;43.706;10.780;2023-02-28T03:25:32;8.40;96.70
45115;DHT22;30877;43.706;10.780;2023-02-28T03:28:07;8.40;96.70
45115;DHT22;30877;43.706;10.780;2023-02-28T03:30:42;8.40;96.70
45115;DHT22;30877;43.706;10.780;2023-02-28T03:33:16;8.40;96.70
45115;DHT22;30877;43.706;10.780;2023-02-28T03:35:48;8.30;96.70
45115;DHT22;30877;43.706;10.780;2023-02-28T03:38:24;8.40;96.70
45115;DHT22;30877;43.706;10.780;2023-02-28T03:41:00;8.30;96.70
45115;DHT22;30877;43.706;10.780;2023-02-28T03:43:33;8.30;96.70
45115;DHT22;30877;43.706;10.780;2023-02-28T03:46:06;8.40;96.70
45115;DHT22;30877;43.706;10.780;2023-02-28T03:48:40;8.40;96.70
45115;DHT22;30877;43.706;10.780;2023-02-28T03:51:13;8.40;96.70
45115;DHT22;30877;43.706;10.780;2023-02-28T03:53:45;8.40;96.70
45115;DHT22;30877;43.706;10.780;2023-02-28T03:56:18;8.40;96.70
45115;DHT22;30877;43.706;10.780;2023-02-28T03:58:50;8.40;96.70
45115;DHT22;30877;43.706;10.780;2023-02-28T04:01:22;8.40;96.70
45115;DHT22;30877;43.706;10.780;2023-02-28T04:03:51;8.40;96.70
45115;DHT22;30877;43.706;10.780;2023-02-28T04:06:21;8.50;96.70
45115;DHT22;30877;43.706;10.780;2023-02-28T04:08:51;8.40;96.70
45115;DHT22;30877;43.706;10.780;2023-02-28T04:11:22;8.50;96.70
45115;DHT22;30877;43.706;10.780;2023-02-28T04:13:50;8.50;96.70
45115;DHT22;30877;43.706;10.780;2023-02-28T04:16:18;8.50;96.70
45115;DHT22;30877;43.706;10.780;2023-02-28T04:19:01;8.50;96.70
45115;DHT22;30877;43.706;10.780;2023-02-28T04:21:29;8.50;96.70
45115;DHT22;30877;43.706;10.780;2023-02-28T04:24:00;8.50;96.70
45115;DHT22;30877;43.706;10.780;2023-02-28T04:26:29;8.50;96.70
45115;DHT22;30877;43.706;10.780;2023-02-28T04:28:57;8.40;96.70
45115;DHT22;30877;43.706;10.780;2023-02-28T04:31:25;8.40;96.70
45115;DHT22;30877;43.706;10.780;2023-02-28T04:33:54;8.50;96.70
45115;DHT22;30877;43.706;10.780;2023-02-28T04:36:22;8.50;96.70
45115;DHT22;30877;43.706;10.780;2023-02-28T04:38:50;8.50;96.70
45115;DHT22;30877;43.706;10.780;2023-02-28T04:41:21;8.50;96.70
45115;DHT22;30877;43.706;10.780;2023-02-28T04:43:51;8.50;96.70
45115;DHT22;30877;43.706;10.780;2023-02-28T04:46:20;8.50;96.70
45115;DHT22;30877;43.706;10.780;2023-02-28T04:48:48;8.50;96.70
45115;DHT22;30877;43.706;10.780;2023-02-28T04:51:18;8.60;96.70
45115;DHT22;30877;43.706;10.780;2023-02-28T04:53:47;8.60;96.70
45115;DHT22;30877;43.706;10.780;2023-02-28T04:56:17;8.60;96.70
45115;DHT22;30877;43.706;10.780;2023-02-28T04:58:47;8.60;96.70
45115;DHT22;30877;43.706;10.780;2023-02-28T05:01:23;8.60;96.70
45115;DHT22;30877;43.706;10.780;2023-02-28T05:03:52;8.40;96.70
45115;DHT22;30877;43.706;10.780;2023-02-28T05:06:21;8.40;96.70
45115;DHT22;30877;43.706;10.780;2023-02-28T05:08:51;8.40;96.70
45115;DHT22;30877;43.706;10.780;2023-02-28T05:11:21;8.40;96.70
45115;DHT22;30877;43.706;10.780;2023-02-28T05:13:51;8.30;96.70
45115;DHT22;30877;43.706;10.780;2023-02-28T05:16:19;8.30;96.70
45115;DHT22;30877;43.706;10.780;2023-02-28T05:18:48;8.40;96.70
45115;DHT22;30877;43.706;10.780;2023-02-28T05:21:28;8.40;96.70
45115;DHT22;30877;43.706;10.780;2023-02-28T05:23:58;8.50;96.70
45115;DHT22;30877;43.706;10.780;2023-02-28T05:26:27;8.40;96.70
45115;DHT22;30877;43.706;10.780;2023-02-28T05:28:57;8.20;96.70
45115;DHT22;30877;43.706;10.780;2023-02-28T05:31:25;8.20;96.70
45115;DHT22;30877;43.706;10.780;2023-02-28T05:33:53;8.20;96.70
45115;DHT22;30877;43.706;10.780;2023-02-28T05:36:21;8.20;96.70
45115;DHT22;30877;43.706;10.780;2023-02-28T05:38:50;8.20;96.70
45115;DHT22;30877;43.706;10.780;2023-02-28T05:41:43;8.20;96.70
45115;DHT22;30877;43.706;10.780;2023-02-28T05:44:13;8.20;96.70
45115;DHT22;30877;43.706;10.780;2023-02-28T05:46:40;8.10;96.70
45115;DHT22;30877;43.706;10.780;2023-02-28T05:49:08;8.20;96.70
45115;DHT22;30877;43.706;10.780;2023-02-28T05:51:36;8.20;96.70
45115;DHT22;30877;43.706;10.780;2023-02-28T05:54:07;8.30;96.70
45115;DHT22;30877;43.706;10.780;2023-02-28T05:56:35;8.30;96.70
45115;DHT22;30877;43.706;10.780;2023-02-28T05:59:05;8.30;96.70
45115;DHT22;30877;43.706;10.780;2023-02-28T06:01:36;8.30;96.70
45115;DHT22;30877;43.706;10.780;2023-02-28T06:04:05;8.30;96.70
45115;DHT22;30877;43.706;10.780;2023-02-28T06:06:33;8.30;96.70
45115;DHT22;30877;43.706;10.780;2023-02-28T06:09:05;8.20;96.70
45115;DHT22;30877;43.706;10.780;2023-02-28T06:11:33;8.20;96.70
45115;DHT22;30877;43.706;10.780;2023-02-28T06:14:01;8.20;96.70
45115;DHT22;30877;43.706;10.780;2023-02-28T06:16:31;8.30;96.70
45115;DHT22;30877;43.706;10.780;2023-02-28T06:19:02;8.30;96.70
45115;DHT22;30877;43.706;10.780;2023-02-28T06:21:31;8.20;96.70
45115;DHT22;30877;43.706;10.780;2023-02-28T06:23:59;8.20;96.70
45115;DHT22;30877;43.706;10.780;2023-02-28T06:26:27;8.20;96.70
45115;DHT22;30877;43.706;10.780;2023-02-28T06:28:55;8.30;96.70
45115;DHT22;30877;43.706;10.780;2023-02-28T06:31:23;8.30;96.70
45115;DHT22;30877;43.706;10.780;2023-02-28T06:33:53;8.30;96.70
45115;DHT22;30877;43.706;10.780;2023-02-28T06:36:22;8.30;96.70
45115;DHT22;30877;43.706;10.780;2023-02-28T06:38:50;8.40;96.70
45115;DHT22;30877;43.706;10.780;2023-02-28T06:41:22;8.40;96.70
45115;DHT22;30877;43.706;10.780;2023-02-28T06:43:50;8.40;96.70
45115;DHT22;30877;43.706;10.780;2023-02-28T06:46:18;8.50;96.70
45115;DHT22;30877;43.706;10.780;2023-02-28T06:48:46;8.50;96.70
45115;DHT22;30877;43.706;10.780;2023-02-28T06:51:16;8.50;96.70
45115;DHT22;30877;43.706;10.780;2023-02-28T06:53:45;8.50;96.70
45115;DHT22;30877;43.706;10.780;2023-02-28T06:56:15;8.60;96.70
45115;DHT22;30877;43.706;10.780;2023-02-28T06:58:46;8.60;96.70
45115;DHT22;30877;43.706;10.780;2023-02-28T07:01:15;8.60;96.70
45115;DHT22;30877;43.706;10.780;2023-02-28T07:03:43;8.60;96.70
45115;DHT22;30877;43.706;10.780;2023-02-28T07:06:10;8.60;96.70
45115;DHT22;30877;43.706;10.780;2023-02-28T07:08:39;8.60;96.70
45115;DHT22;30877;43.706;10.780;2023-02-28T07:11:09;8.70;96.70
45115;DHT22;30877;43.706;10.780;2023-02-28T07:13:37;8.80;96.70
45115;DHT22;30877;43.706;10.780;2023-02-28T07:16:08;8.90;96.70
45115;DHT22;30877;43.706;10.780;2023-02-28T07:18:37;8.90;96.70
45115;DHT22;30877;43.706;10.780;2023-02-28T07:21:07;9.00;96.70
45115;DHT22;30877;43.706;10.780;2023-02-28T07:23:35;9.10;96.70
45115;DHT22;30877;43.706;10.780;2023-02-28T07:26:05;9.10;96.70
45115;DHT22;30877;43.706;10.780;2023-02-28T07:28:34;9.10;96.70
45115;DHT22;30877;43.706;10.780;2023-02-28T07:31:05;9.10;96.70
45115;DHT22;30877;43.706;10.780;2023-02-28T07:33:33;9.10;96.70
45115;DHT22;30877;43.706;10.780;2023-02-28T07:36:02;9.10;96.70
45115;DHT22;30877;43.706;10.780;2023-02-28T07:38:30;9.10;96.70
45115;DHT22;30877;43.706;10.780;2023-02-28T07:40:58;9.20;96.70
45115;DHT22;30877;43.706;10.780;2023-02-28T07:43:25;9.20;96.70
45115;DHT22;30877;43.706;10.780;2023-02-28T07:45:55;9.20;96.70
45115;DHT22;30877;43.706;10.780;2023-02-28T07:48:22;9.20;96.70
45115;DHT22;30877;43.706;10.780;2023-02-28T07:50:54;9.20;96.70
45115;DHT22;30877;43.706;10.780;2023-02-28T07:53:22;9.30;96.70
45115;DHT22;30877;43.706;10.780;2023-02-28T07:55:50;9.30;96.70
45115;DHT22;30877;43.706;10.780;2023-02-28T07:58:18;9.40;96.70
45115;DHT22;30877;43.706;10.780;2023-02-28T08:00:45;9.40;96.70
45115;DHT22;30877;43.706;10.780;2023-02-28T08:03:15;9.50;96.70
45115;DHT22;30877;43.706;10.780;2023-02-28T08:05:43;9.50;96.70
45115;DHT22;30877;43.706;10.780;2023-02-28T08:08:11;9.60;96.70
45115;DHT22;30877;43.706;10.780;2023-02-28T08:10:39;9.60;96.70
45115;DHT22;30877;43.706;10.780;2023-02-28T08:13:07;9.60;96.70
45115;DHT22;30877;43.706;10.780;2023-02-28T08:15:35;9.60;96.70
45115;DHT22;30877;43.706;10.780;2023-02-28T08:18:03;9.60;96.70
45115;DHT22;30877;43.706;10.780;2023-02-28T08:20:33;9.60;96.70
45115;DHT22;30877;43.706;10.780;2023-02-28T08:23:01;9.60;96.70
45115;DHT22;30877;43.706;10.780;2023-02-28T08:25:28;9.60;96.70
45115;DHT22;30877;43.706;10.780;2023-02-28T08:27:56;9.60;96.70
45115;DHT22;30877;43.706;10.780;2023-02-28T08:30:24;9.60;96.70
45115;DHT22;30877;43.706;10.780;2023-02-28T08:32:52;9.70;96.70
45115;DHT22;30877;43.706;10.780;2023-02-28T08:35:20;9.70;96.70
45115;DHT22;30877;43.706;10.780;2023-02-28T08:37:49;9.80;96.70
45115;DHT22;30877;43.706;10.780;2023-02-28T08:40:17;9.80;96.70
45115;DHT22;30877;43.706;10.780;2023-02-28T08:42:48;9.80;96.70
45115;DHT22;30877;43.706;10.780;2023-02-28T08:45:16;9.90;96.70
45115;DHT22;30877;43.706;10.780;2023-02-28T08:47:44;10.00;96.70
45115;DHT22;30877;43.706;10.780;2023-02-28T08:50:12;10.00;96.70
45115;DHT22;30877;43.706;10.780;2023-02-28T08:52:42;10.00;96.70
45115;DHT22;30877;43.706;10.780;2023-02-28T08:55:12;10.00;96.70
45115;DHT22;30877;43.706;10.780;2023-02-28T08:57:40;10.10;96.70
45115;DHT22;30877;43.706;10.780;2023-02-28T09:00:10;10.10;96.70
45115;DHT22;30877;43.706;10.780;2023-02-28T09:02:41;10.30;96.70
45115;DHT22;30877;43.706;10.780;2023-02-28T09:05:14;10.40;96.70
45115;DHT22;30877;43.706;10.780;2023-02-28T09:07:45;10.50;96.70
45115;DHT22;30877;43.706;10.780;2023-02-28T09:10:14;10.60;96.70
45115;DHT22;30877;43.706;10.780;2023-02-28T09:12:42;10.60;96.70
45115;DHT22;30877;43.706;10.780;2023-02-28T09:15:13;10.60;96.70
45115;DHT22;30877;43.706;10.780;2023-02-28T09:17:41;10.70;96.70
45115;DHT22;30877;43.706;10.780;2023-02-28T09:20:12;10.60;96.70
45115;DHT22;30877;43.706;10.780;2023-02-28T09:22:40;10.60;96.70
45115;DHT22;30877;43.706;10.780;2023-02-28T09:25:08;10.60;96.70
45115;DHT22;30877;43.706;10.780;2023-02-28T09:27:37;10.60;96.70
45115;DHT22;30877;43.706;10.780;2023-02-28T09:30:06;10.60;96.70
45115;DHT22;30877;43.706;10.780;2023-02-28T09:32:34;10.60;96.70
45115;DHT22;30877;43.706;10.780;2023-02-28T09:35:03;10.60;96.70
45115;DHT22;30877;43.706;10.780;2023-02-28T09:37:31;10.70;96.70
45115;DHT22;30877;43.706;10.780;2023-02-28T09:39:59;10.70;96.70
45115;DHT22;30877;43.706;10.780;2023-02-28T09:42:56;10.60;96.70
45115;DHT22;30877;43.706;10.780;2023-02-28T09:45:29;10.60;96.70
45115;DHT22;30877;43.706;10.780;2023-02-28T09:48:01;10.60;96.70
45115;DHT22;30877;43.706;10.780;2023-02-28T09:50:36;10.60;96.70
45115;DHT22;30877;43.706;10.780;2023-02-28T09:53:14;10.60;96.70
45115;DHT22;30877;43.706;10.780;2023-02-28T09:55:46;10.60;96.70
45115;DHT22;30877;43.706;10.780;2023-02-28T09:58:22;10.60;96.70
45115;DHT22;30877;43.706;10.780;2023-02-28T10:00:59;10.70;96.70
45115;DHT22;30877;43.706;10.780;2023-02-28T10:03:35;10.70;96.70
45115;DHT22;30877;43.706;10.780;2023-02-28T10:06:09;10.80;96.70
45115;DHT22;30877;43.706;10.780;2023-02-28T10:08:52;10.90;96.70
45115;DHT22;30877;43.706;10.780;2023-02-28T10:11:25;11.00;96.70
45115;DHT22;30877;43.706;10.780;2023-02-28T10:14:00;11.10;96.70
45115;DHT22;30877;43.706;10.780;2023-02-28T10:16:33;11.10;96.70
45115;DHT22;30877;43.706;10.780;2023-02-28T10:19:09;11.20;96.70
45115;DHT22;30877;43.706;10.780;2023-02-28T10:21:43;11.20;96.70
45115;DHT22;30877;43.706;10.780;2023-02-28T10:24:20;11.20;96.70
45115;DHT22;30877;43.706;10.780;2023-02-28T10:26:49;11.30;96.70
45115;DHT22;30877;43.706;10.780;2023-02-28T10:29:22;11.40;96.70
45115;DHT22;30877;43.706;10.780;2023-02-28T10:31:50;11.60;96.70
45115;DHT22;30877;43.706;10.780;2023-02-28T10:34:19;11.70;96.70
45115;DHT22;30877;43.706;10.780;2023-02-28T10:36:49;11.80;96.70
45115;DHT22;30877;43.706;10.780;2023-02-28T10:39:41;11.90;96.70
45115;DHT22;30877;43.706;10.780;2023-02-28T10:42:22;12.00;96.70
45115;DHT22;30877;43.706;10.780;2023-02-28T10:45:10;12.00;96.70
45115;DHT22;30877;43.706;10.780;2023-02-28T10:47:49;11.90;96.70
45115;DHT22;30877;43.706;10.780;2023-02-28T10:50:33;11.90;96.70
45115;DHT22;30877;43.706;10.780;2023-02-28T10:53:27;12.00;96.70
45115;DHT22;30877;43.706;10.780;2023-02-28T10:56:01;12.00;96.70
45115;DHT22;30877;43.706;10.780;2023-02-28T10:58:31;12.00;96.70
45115;DHT22;30877;43.706;10.780;2023-02-28T11:01:14;12.10;96.70
45115;DHT22;30877;43.706;10.780;2023-02-28T11:03:44;12.10;96.70
45115;DHT22;30877;43.706;10.780;2023-02-28T11:06:17;12.10;96.70
45115;DHT22;30877;43.706;10.780;2023-02-28T11:08:49;12.30;96.70
45115;DHT22;30877;43.706;10.780;2023-02-28T11:11:19;12.40;96.70
45115;DHT22;30877;43.706;10.780;2023-02-28T11:13:51;12.50;96.70
45115;DHT22;30877;43.706;10.780;2023-02-28T11:16:31;12.50;96.70
45115;DHT22;30877;43.706;10.780;2023-02-28T11:19:00;12.50;96.70
45115;DHT22;30877;43.706;10.780;2023-02-28T11:21:32;12.50;96.70
45115;DHT22;30877;43.706;10.780;2023-02-28T11:24:05;12.20;96.70
45115;DHT22;30877;43.706;10.780;2023-02-28T11:26:42;12.20;96.70
45115;DHT22;30877;43.706;10.780;2023-02-28T11:29:17;12.20;96.70
45115;DHT22;30877;43.706;10.780;2023-02-28T11:32:21;12.20;96.70
45115;DHT22;30877;43.706;10.780;2023-02-28T11:35:02;12.10;96.70
45115;DHT22;30877;43.706;10.780;2023-02-28T11:37:32;12.10;96.70
45115;DHT22;30877;43.706;10.780;2023-02-28T11:40:01;12.10;96.70
45115;DHT22;30877;43.706;10.780;2023-02-28T11:42:50;12.10;96.70
45115;DHT22;30877;43.706;10.780;2023-02-28T11:45:38;12.10;96.70
45115;DHT22;30877;43.706;10.780;2023-02-28T11:48:19;12.30;96.70
45115;DHT22;30877;43.706;10.780;2023-02-28T11:50:58;12.40;96.70
45115;DHT22;30877;43.706;10.780;2023-02-28T11:53:49;12.30;96.70
45115;DHT22;30877;43.706;10.780;2023-02-28T11:56:24;12.30;96.70
45115;DHT22;30877;43.706;10.780;2023-02-28T11:59:03;12.40;96.70
45115;DHT22;30877;43.706;10.780;2023-02-28T12:01:47;12.50;96.70
45115;DHT22;30877;43.706;10.780;2023-02-28T12:04:26;12.60;96.70
45115;DHT22;30877;43.706;10.780;2023-02-28T12:07:03;12.50;96.70
45115;DHT22;30877;43.706;10.780;2023-02-28T12:09:53;12.60;96.70
45115;DHT22;30877;43.706;10.780;2023-02-28T12:12:37;12.60;96.70
45115;DHT22;30877;43.706;10.780;2023-02-28T12:15:20;12.40;96.70
45115;DHT22;30877;43.706;10.780;2023-02-28T12:18:15;12.30;96.70
45115;DHT22;30877;43.706;10.780;2023-02-28T12:20:55;12.20;96.70
45115;DHT22;30877;43.706;10.780;2023-02-28T12:26:40;12.00;96.70
45115;DHT22;30877;43.706;10.780;2023-02-28T12:29:15;12.00;96.70
45115;DHT22;30877;43.706;10.780;2023-02-28T12:31:51;11.90;96.70
45115;DHT22;30877;43.706;10.780;2023-02-28T12:34:25;11.90;96.70
45115;DHT22;30877;43.706;10.780;2023-02-28T12:37:21;12.00;96.70
45115;DHT22;30877;43.706;10.780;2023-02-28T12:39:55;12.10;96.70
45115;DHT22;30877;43.706;10.780;2023-02-28T12:42:31;12.00;96.70
45115;DHT22;30877;43.706;10.780;2023-02-28T12:45:03;12.20;96.70
45115;DHT22;30877;43.706;10.780;2023-02-28T12:47:33;12.40;96.70
45115;DHT22;30877;43.706;10.780;2023-02-28T12:50:05;12.70;96.70
45115;DHT22;30877;43.706;10.780;2023-02-28T12:52:41;12.90;96.70
45115;DHT22;30877;43.706;10.780;2023-02-28T12:55:19;13.00;96.70
45115;DHT22;30877;43.706;10.780;2023-02-28T12:57:52;13.00;96.70
45115;DHT22;30877;43.706;10.780;2023-02-28T13:00:28;13.10;96.70
45115;DHT22;30877;43.706;10.780;2023-02-28T13:03:12;13.10;96.70
45115;DHT22;30877;43.706;10.780;2023-02-28T13:06:05;13.10;96.70
45115;DHT22;30877;43.706;10.780;2023-02-28T13:09:01;13.20;96.70
45115;DHT22;30877;43.706;10.780;2023-02-28T13:11:33;13.40;96.70
45115;DHT22;30877;43.706;10.780;2023-02-28T13:14:06;13.40;96.70
45115;DHT22;30877;43.706;10.780;2023-02-28T13:16:59;13.50;96.70
45115;DHT22;30877;43.706;10.780;2023-02-28T13:19:31;13.60;96.70
45115;DHT22;30877;43.706;10.780;2023-02-28T13:22:01;13.60;96.70
45115;DHT22;30877;43.706;10.780;2023-02-28T13:24:42;13.50;96.70
45115;DHT22;30877;43.706;10.780;2023-02-28T13:27:22;13.30;96.70
45115;DHT22;30877;43.706;10.780;2023-02-28T13:29:53;13.30;96.70
45115;DHT22;30877;43.706;10.780;2023-02-28T13:32:34;13.30;96.70
45115;DHT22;30877;43.706;10.780;2023-02-28T13:38:37;13.20;96.70
45115;DHT22;30877;43.706;10.780;2023-02-28T13:41:45;13.30;96.70
45115;DHT22;30877;43.706;10.780;2023-02-28T13:44:16;13.30;96.70
45115;DHT22;30877;43.706;10.780;2023-02-28T13:47:22;13.10;96.70
45115;DHT22;30877;43.706;10.780;2023-02-28T13:49:52;13.00;96.70
45115;DHT22;30877;43.706;10.780;2023-02-28T13:52:22;13.00;96.70
45115;DHT22;30877;43.706;10.780;2023-02-28T13:55:02;12.90;96.70
45115;DHT22;30877;43.706;10.780;2023-02-28T13:57:47;12.70;96.70
45115;DHT22;30877;43.706;10.780;2023-02-28T14:00:37;12.70;96.70
45115;DHT22;30877;43.706;10.780;2023-02-28T14:03:22;12.80;96.70
45115;DHT22;30877;43.706;10.780;2023-02-28T14:06:25;12.80;96.70
45115;DHT22;30877;43.706;10.780;2023-02-28T14:08:58;12.80;96.70
45115;DHT22;30877;43.706;10.780;2023-02-28T14:11:30;12.90;96.70
45115;DHT22;30877;43.706;10.780;2023-02-28T14:14:01;12.70;96.70
45115;DHT22;30877;43.706;10.780;2023-02-28T14:16:38;12.60;96.70
45115;DHT22;30877;43.706;10.780;2023-02-28T14:19:12;12.60;96.70
45115;DHT22;30877;43.706;10.780;2023-02-28T14:21:50;12.60;96.70
45115;DHT22;30877;43.706;10.780;2023-02-28T14:24:42;12.70;96.70
45115;DHT22;30877;43.706;10.780;2023-02-28T14:27:24;12.60;96.70
45115;DHT22;30877;43.706;10.780;2023-02-28T14:33:22;12.60;96.70
45115;DHT22;30877;43.706;10.780;2023-02-28T14:36:04;12.70;96.70
45115;DHT22;30877;43.706;10.780;2023-02-28T14:38:37;12.70;96.70
45115;DHT22;30877;43.706;10.780;2023-02-28T14:41:19;12.90;96.70
45115;DHT22;30877;43.706;10.780;2023-02-28T14:43:50;13.00;96.70
45115;DHT22;30877;43.706;10.780;2023-02-28T14:46:18;13.30;96.70
45115;DHT22;30877;43.706;10.780;2023-02-28T14:48:49;13.40;96.70
45115;DHT22;30877;43.706;10.780;2023-02-28T14:51:22;13.50;96.70
45115;DHT22;30877;43.706;10.780;2023-02-28T14:53:52;13.70;96.70
45115;DHT22;30877;43.706;10.780;2023-02-28T14:56:25;13.80;96.70
45115;DHT22;30877;43.706;10.780;2023-02-28T14:58:56;14.00;96.70
45115;DHT22;30877;43.706;10.780;2023-02-28T15:01:25;14.00;96.70
45115;DHT22;30877;43.706;10.780;2023-02-28T15:04:05;14.10;96.70
45115;DHT22;30877;43.706;10.780;2023-02-28T15:06:33;14.40;96.70
45115;DHT22;30877;43.706;10.780;2023-02-28T15:09:13;14.50;96.70
45115;DHT22;30877;43.706;10.780;2023-02-28T15:11:44;14.50;96.70
45115;DHT22;30877;43.706;10.780;2023-02-28T15:14:17;14.60;96.70
45115;DHT22;30877;43.706;10.780;2023-02-28T15:16:49;14.40;96.70
45115;DHT22;30877;43.706;10.780;2023-02-28T15:19:23;14.10;96.70
45115;DHT22;30877;43.706;10.780;2023-02-28T15:21:55;13.80;96.70
45115;DHT22;30877;43.706;10.780;2023-02-28T15:24:31;13.70;96.70
45115;DHT22;30877;43.706;10.780;2023-02-28T15:27:02;13.40;96.70
45115;DHT22;30877;43.706;10.780;2023-02-28T15:29:36;12.80;96.70
45115;DHT22;30877;43.706;10.780;2023-02-28T15:32:23;12.40;96.70
45115;DHT22;30877;43.706;10.780;2023-02-28T15:34:54;12.10;96.70
45115;DHT22;30877;43.706;10.780;2023-02-28T15:37:38;12.10;96.70
45115;DHT22;30877;43.706;10.780;2023-02-28T15:40:13;12.00;96.70
45115;DHT22;30877;43.706;10.780;2023-02-28T15:42:41;11.90;96.70
45115;DHT22;30877;43.706;10.780;2023-02-28T15:45:34;12.00;96.70
45115;DHT22;30877;43.706;10.780;2023-02-28T15:48:09;11.90;96.70
45115;DHT22;30877;43.706;10.780;2023-02-28T15:50:42;11.80;96.70
45115;DHT22;30877;43.706;10.780;2023-02-28T15:53:15;11.60;96.70
45115;DHT22;30877;43.706;10.780;2023-02-28T15:55:44;11.50;96.70
45115;DHT22;30877;43.706;10.780;2023-02-28T15:58:13;11.90;96.70
45115;DHT22;30877;43.706;10.780;2023-02-28T16:00:43;12.40;96.70
45115;DHT22;30877;43.706;10.780;2023-02-28T16:03:26;12.90;96.70
45115;DHT22;30877;43.706;10.780;2023-02-28T16:06:26;12.80;96.70
45115;DHT22;30877;43.706;10.780;2023-02-28T16:08:56;12.10;96.70
45115;DHT22;30877;43.706;10.780;2023-02-28T16:11:24;11.60;96.70
45115;DHT22;30877;43.706;10.780;2023-02-28T16:13:53;11.50;96.70
45115;DHT22;30877;43.706;10.780;2023-02-28T16:16:24;11.10;96.70
45115;DHT22;30877;43.706;10.780;2023-02-28T16:18:52;11.10;96.70
45115;DHT22;30877;43.706;10.780;2023-02-28T16:21:20;10.80;96.70